CheckWX is a tool to help pilots better visualize weather data.  It is not intended as a substitute for an official pre-flight weather briefing.

12:22:45 UTC

KCID METAR
The Eastern Iowa Airport
Cedar Rapids, Iowa, USA
Current

31 mins ago

KCID 221152Z 02003KT 5SM BR FEW120 M09/M12 A3039 RMK AO2 SLP306 T10941117 11089 21122 53013
Observed
Feb-22 @ 11:52 UTC
Wind
  • 020° at 3 KTS
Visibility
5 SM
Flight Rules
MVFR
Conditions
Mist
Cloud Levels
  • Few at 12,000' AGL
Temperature
-9°C / 16°F
Dewpoint
-12°C / 10°F
Humidity
79%
Altimeter
30.39" Hg
Pressure
1030.6 hPa
Previous

2 hours ago

KCID 221052Z 36005KT 6SM BR BKN120 M09/M12 A3038 RMK AO2 SLP302 T10941117
Observed
Feb-22 @ 10:52 UTC
Wind
  • 360° at 5 KTS
Visibility
6 SM
Flight Rules
VFR
Conditions
Mist
Cloud Levels
  • Broken at 12,000' AGL
Temperature
-9°C / 16°F
Dewpoint
-12°C / 10°F
Humidity
79%
Altimeter
30.38" Hg
Pressure
1030.2 hPa
Previous

3 hours ago

KCID 220952Z AUTO 11005KT 6SM BR FEW110 M09/M11 A3034 RMK AO2 SLP291 T10941111
Observed
Feb-22 @ 09:52 UTC
Wind
  • 110° at 5 KTS
Visibility
6 SM
Flight Rules
VFR
Conditions
Mist
Cloud Levels
  • Few at 11,000' AGL
Temperature
-9°C / 16°F
Dewpoint
-11°C / 12°F
Humidity
86%
Altimeter
30.34" Hg
Pressure
1029.1 hPa